AFR72UQ LFPG-EKCH
Flight info
| Callsign | AFR72UQ |
|---|---|
| Flight time | 1h 24m |
| Altitude | 37000 |
| Route | NURMO DCT CMB DCT VEKIN DCT ADUTO DCT VICOT DCT EEL DCT TALSA P729 TUDLO |
| Aircraft | A320/M-SDE3FGHIRWY/LB1 |
Departure
| Time | 2026-05-04 07:33 |
|---|---|
| Airport | Charles de Gaulle International Airport (LFPG) |
Arrival
| Time | 2026-05-04 08:57 |
|---|---|
| Airport | Copenhagen Kastrup Airport (EKCH) |
| Time | Latitude | Longitude | Altitude | Speed | Heading |
|---|---|---|---|---|---|
| 2026-05-04 06:31 | 49.00708 | 2.57542 | 357 ft | 0 kts | 244° |
| 2026-05-04 07:15 | 49.00709 | 2.57545 | 356 ft | 1 kts | 244° |
| 2026-05-04 07:15 | 49.00716 | 2.57565 | 356 ft | 2 kts | 244° |
| 2026-05-04 07:15 | 49.00722 | 2.57586 | 356 ft | 2 kts | 244° |
| 2026-05-04 07:15 | 49.00728 | 2.57607 | 356 ft | 2 kts | 264° |
| 2026-05-04 07:16 | 49.00727 | 2.57630 | 356 ft | 2 kts | 288° |
| 2026-05-04 07:16 | 49.00720 | 2.57650 | 356 ft | 2 kts | 313° |
| 2026-05-04 07:16 | 49.00708 | 2.57664 | 356 ft | 2 kts | 337° |
| 2026-05-04 07:16 | 49.00699 | 2.57668 | 356 ft | 0 kts | 354° |
| 2026-05-04 07:17 | 49.00691 | 2.57669 | 355 ft | 0 kts | 357° |
| 2026-05-04 07:19 | 49.00692 | 2.57669 | 355 ft | 0 kts | 357° |
| 2026-05-04 07:19 | 49.00699 | 2.57668 | 355 ft | 2 kts | 358° |
| 2026-05-04 07:19 | 49.00721 | 2.57666 | 356 ft | 4 kts | 357° |
| 2026-05-04 07:20 | 49.00753 | 2.57652 | 356 ft | 5 kts | 336° |
| 2026-05-04 07:20 | 49.00793 | 2.57611 | 356 ft | 7 kts | 323° |
| 2026-05-04 07:20 | 49.00843 | 2.57568 | 357 ft | 9 kts | 334° |
| 2026-05-04 07:20 | 49.00872 | 2.57482 | 358 ft | 10 kts | 270° |
| 2026-05-04 07:22 | 49.00804 | 2.56324 | 358 ft | 19 kts | 262° |
| 2026-05-04 07:22 | 49.00785 | 2.56115 | 356 ft | 20 kts | 261° |
| 2026-05-04 07:23 | 49.00764 | 2.55902 | 353 ft | 21 kts | 262° |
| 2026-05-04 07:23 | 49.00743 | 2.55679 | 350 ft | 21 kts | 263° |
| 2026-05-04 07:23 | 49.00730 | 2.55487 | 348 ft | 13 kts | 264° |
| 2026-05-04 07:23 | 49.00732 | 2.55370 | 347 ft | 11 kts | 296° |
| 2026-05-04 07:24 | 49.00798 | 2.55319 | 348 ft | 10 kts | 345° |
| 2026-05-04 07:24 | 49.00869 | 2.55287 | 349 ft | 10 kts | 344° |
| 2026-05-04 07:24 | 49.00944 | 2.55255 | 351 ft | 11 kts | 344° |
| 2026-05-04 07:24 | 49.01021 | 2.55224 | 353 ft | 11 kts | 346° |
| 2026-05-04 07:25 | 49.01096 | 2.55191 | 356 ft | 11 kts | 345° |
| 2026-05-04 07:26 | 49.01755 | 2.55140 | 374 ft | 15 kts | 355° |
| 2026-05-04 07:27 | 49.01846 | 2.55100 | 376 ft | 13 kts | 306° |
| 2026-05-04 07:27 | 49.01851 | 2.54945 | 375 ft | 16 kts | 266° |
| 2026-05-04 07:27 | 49.01842 | 2.54761 | 374 ft | 18 kts | 266° |
| 2026-05-04 07:27 | 49.01833 | 2.54559 | 373 ft | 20 kts | 265° |
| 2026-05-04 07:28 | 49.01819 | 2.54338 | 371 ft | 21 kts | 265° |
| 2026-05-04 07:28 | 49.01807 | 2.54114 | 371 ft | 21 kts | 266° |
| 2026-05-04 07:28 | 49.01796 | 2.53888 | 371 ft | 21 kts | 266° |
| 2026-05-04 07:28 | 49.01783 | 2.53668 | 372 ft | 20 kts | 265° |
| 2026-05-04 07:29 | 49.01770 | 2.53449 | 372 ft | 21 kts | 265° |
| 2026-05-04 07:29 | 49.01758 | 2.53214 | 372 ft | 22 kts | 266° |
| 2026-05-04 07:29 | 49.01746 | 2.52967 | 373 ft | 23 kts | 266° |
| 2026-05-04 07:29 | 49.01733 | 2.52726 | 372 ft | 22 kts | 266° |
| 2026-05-04 07:30 | 49.01723 | 2.52513 | 371 ft | 17 kts | 266° |
| 2026-05-04 07:30 | 49.01743 | 2.52382 | 372 ft | 12 kts | 327° |
| 2026-05-04 07:30 | 49.01827 | 2.52363 | 373 ft | 12 kts | 355° |
| 2026-05-04 07:30 | 49.01910 | 2.52353 | 375 ft | 11 kts | 356° |
| 2026-05-04 07:31 | 49.01987 | 2.52344 | 376 ft | 10 kts | 356° |
| 2026-05-04 07:31 | 49.02061 | 2.52334 | 377 ft | 10 kts | 355° |
| 2026-05-04 07:33 | 49.02468 | 2.59671 | 2122 ft | 167 kts | 85° |
| 2026-05-04 07:33 | 49.02554 | 2.61394 | 2723 ft | 164 kts | 85° |
| 2026-05-04 07:33 | 49.02640 | 2.63100 | 3238 ft | 165 kts | 86° |
| 2026-05-04 07:33 | 49.02731 | 2.64852 | 3700 ft | 170 kts | 86° |
| 2026-05-04 07:34 | 49.02831 | 2.66721 | 4009 ft | 185 kts | 85° |
| 2026-05-04 07:34 | 49.02951 | 2.68740 | 4355 ft | 200 kts | 85° |
| 2026-05-04 07:34 | 49.03093 | 2.70948 | 4651 ft | 221 kts | 85° |
| 2026-05-04 07:34 | 49.03308 | 2.73353 | 5041 ft | 238 kts | 69° |
| 2026-05-04 07:35 | 49.04349 | 2.75345 | 5457 ft | 254 kts | 31° |
| 2026-05-04 07:35 | 49.06072 | 2.76094 | 5939 ft | 269 kts | 1° |
| 2026-05-04 07:35 | 49.07967 | 2.76028 | 6582 ft | 277 kts | 359° |
| 2026-05-04 07:35 | 49.09888 | 2.75872 | 7310 ft | 282 kts | 356° |
| 2026-05-04 07:36 | 49.11839 | 2.75730 | 8165 ft | 283 kts | 360° |
| 2026-05-04 07:36 | 49.13788 | 2.75746 | 8921 ft | 286 kts | 1° |
| 2026-05-04 07:38 | 49.29333 | 2.75669 | 12746 ft | 352 kts | 359° |
| 2026-05-04 07:38 | 49.31791 | 2.75663 | 13380 ft | 356 kts | 359° |
| 2026-05-04 07:38 | 49.34281 | 2.75655 | 14003 ft | 360 kts | 359° |
| 2026-05-04 07:38 | 49.36762 | 2.75645 | 14605 ft | 363 kts | 359° |
| 2026-05-04 07:39 | 49.39304 | 2.75638 | 15201 ft | 366 kts | 359° |
| 2026-05-04 07:39 | 49.41854 | 2.75631 | 15768 ft | 370 kts | 359° |
| 2026-05-04 07:39 | 49.44423 | 2.75624 | 16339 ft | 373 kts | 359° |
| 2026-05-04 07:39 | 49.47024 | 2.75619 | 16891 ft | 376 kts | 359° |
| 2026-05-04 07:40 | 49.49666 | 2.75614 | 17432 ft | 379 kts | 359° |
| 2026-05-04 07:40 | 49.52300 | 2.75608 | 17963 ft | 382 kts | 359° |
| 2026-05-04 07:40 | 49.54948 | 2.75602 | 18456 ft | 386 kts | 358° |
| 2026-05-04 07:40 | 49.57639 | 2.75597 | 18939 ft | 389 kts | 358° |
| 2026-05-04 07:41 | 49.60361 | 2.75590 | 19393 ft | 393 kts | 358° |
| 2026-05-04 07:41 | 49.63111 | 2.75583 | 19836 ft | 397 kts | 358° |
| 2026-05-04 07:41 | 49.65883 | 2.75577 | 20255 ft | 402 kts | 358° |
| 2026-05-04 07:41 | 49.68641 | 2.75570 | 20679 ft | 405 kts | 358° |
| 2026-05-04 07:42 | 49.71465 | 2.75569 | 21131 ft | 408 kts | 358° |
| 2026-05-04 07:42 | 49.74339 | 2.75568 | 21550 ft | 412 kts | 358° |
| 2026-05-04 07:42 | 49.77211 | 2.75561 | 21959 ft | 416 kts | 358° |
| 2026-05-04 07:42 | 49.80097 | 2.75636 | 22332 ft | 421 kts | 4° |
| 2026-05-04 07:43 | 49.82986 | 2.76513 | 22692 ft | 427 kts | 18° |
| 2026-05-04 07:43 | 49.85694 | 2.78354 | 23054 ft | 430 kts | 30° |
| 2026-05-04 07:43 | 49.88235 | 2.80776 | 23457 ft | 433 kts | 33° |
| 2026-05-04 07:43 | 49.90793 | 2.83351 | 23804 ft | 437 kts | 34° |
| 2026-05-04 07:44 | 49.93307 | 2.85893 | 24167 ft | 441 kts | 34° |
| 2026-05-04 07:44 | 49.95903 | 2.88496 | 24561 ft | 444 kts | 34° |
| 2026-05-04 07:44 | 49.98504 | 2.91078 | 24963 ft | 446 kts | 33° |
| 2026-05-04 07:44 | 50.01121 | 2.93670 | 25371 ft | 448 kts | 33° |
| 2026-05-04 07:45 | 50.03766 | 2.96281 | 25729 ft | 451 kts | 33° |
| 2026-05-04 07:45 | 50.06413 | 2.98895 | 26051 ft | 455 kts | 33° |
| 2026-05-04 07:45 | 50.09061 | 3.01511 | 26379 ft | 458 kts | 33° |
| 2026-05-04 07:45 | 50.11763 | 3.04187 | 26690 ft | 461 kts | 33° |
| 2026-05-04 07:46 | 50.14466 | 3.06867 | 27022 ft | 463 kts | 33° |
| 2026-05-04 07:46 | 50.17178 | 3.09557 | 27320 ft | 466 kts | 33° |
| 2026-05-04 07:46 | 50.19926 | 3.12284 | 27604 ft | 469 kts | 32° |
| 2026-05-04 07:46 | 50.22732 | 3.14857 | 27906 ft | 471 kts | 29° |
| 2026-05-04 07:47 | 50.25658 | 3.17187 | 28203 ft | 473 kts | 25° |
| 2026-05-04 07:47 | 50.28670 | 3.19340 | 28481 ft | 476 kts | 24° |
| 2026-05-04 07:47 | 50.31694 | 3.21433 | 28758 ft | 478 kts | 23° |
| 2026-05-04 07:49 | 50.52979 | 3.37229 | 30467 ft | 492 kts | 24° |
| 2026-05-04 07:49 | 50.56093 | 3.39431 | 30696 ft | 494 kts | 23° |
| 2026-05-04 07:49 | 50.59235 | 3.41613 | 30975 ft | 494 kts | 23° |
| 2026-05-04 07:50 | 50.62392 | 3.43805 | 31251 ft | 494 kts | 22° |
| 2026-05-04 07:50 | 50.65494 | 3.45967 | 31513 ft | 494 kts | 22° |
| 2026-05-04 07:50 | 50.68632 | 3.48158 | 31803 ft | 493 kts | 22° |
| 2026-05-04 07:50 | 50.71733 | 3.50332 | 32077 ft | 492 kts | 22° |
| 2026-05-04 07:51 | 50.74865 | 3.52532 | 32350 ft | 492 kts | 22° |
| 2026-05-04 07:51 | 50.77977 | 3.54727 | 32606 ft | 492 kts | 22° |
| 2026-05-04 07:51 | 50.81096 | 3.56928 | 32861 ft | 491 kts | 22° |
| 2026-05-04 07:51 | 50.84193 | 3.59115 | 33113 ft | 491 kts | 22° |
| 2026-05-04 07:52 | 50.87286 | 3.61335 | 33337 ft | 492 kts | 25° |
| 2026-05-04 07:52 | 50.90238 | 3.64102 | 33534 ft | 494 kts | 32° |
| 2026-05-04 07:52 | 50.93073 | 3.67128 | 33718 ft | 495 kts | 34° |
| 2026-05-04 07:52 | 50.95937 | 3.70070 | 33847 ft | 496 kts | 27° |
| 2026-05-04 07:53 | 50.99039 | 3.72463 | 34023 ft | 494 kts | 21° |
| 2026-05-04 07:54 | 51.21286 | 3.87178 | 34952 ft | 497 kts | 20° |
| 2026-05-04 07:55 | 51.27664 | 3.91457 | 34959 ft | 498 kts | 20° |
| 2026-05-04 07:55 | 51.33998 | 3.95729 | 34961 ft | 497 kts | 20° |
| 2026-05-04 07:56 | 51.40341 | 4.00036 | 34962 ft | 496 kts | 21° |
| 2026-05-04 07:56 | 51.46478 | 4.05036 | 34961 ft | 499 kts | 28° |
| 2026-05-04 07:57 | 51.52198 | 4.11264 | 34961 ft | 499 kts | 36° |
| 2026-05-04 07:57 | 51.57458 | 4.18610 | 34960 ft | 500 kts | 41° |
| 2026-05-04 07:58 | 51.62506 | 4.26185 | 34960 ft | 500 kts | 41° |
| 2026-05-04 07:58 | 51.67558 | 4.33762 | 34961 ft | 500 kts | 41° |
| 2026-05-04 07:59 | 51.72672 | 4.41413 | 34962 ft | 499 kts | 41° |
| 2026-05-04 07:59 | 51.77748 | 4.49017 | 34961 ft | 500 kts | 41° |
| 2026-05-04 08:00 | 51.82816 | 4.56627 | 34964 ft | 499 kts | 41° |
| 2026-05-04 08:02 | 52.02258 | 4.86063 | 34959 ft | 500 kts | 41° |
| 2026-05-04 08:02 | 52.06971 | 4.93249 | 34949 ft | 498 kts | 41° |
| 2026-05-04 08:03 | 52.11383 | 4.99999 | 34957 ft | 498 kts | 41° |
| 2026-05-04 08:03 | 52.16456 | 5.07780 | 34973 ft | 496 kts | 41° |
| 2026-05-04 08:04 | 52.21176 | 5.15057 | 34967 ft | 495 kts | 41° |
| 2026-05-04 08:04 | 52.26194 | 5.22803 | 34960 ft | 495 kts | 41° |
| 2026-05-04 08:05 | 52.31174 | 5.30518 | 34947 ft | 495 kts | 41° |
| 2026-05-04 08:05 | 52.36158 | 5.38266 | 34951 ft | 496 kts | 41° |
| 2026-05-04 08:06 | 52.41121 | 5.46005 | 34952 ft | 495 kts | 41° |
| 2026-05-04 08:06 | 52.46080 | 5.53765 | 34951 ft | 495 kts | 41° |
| 2026-05-04 08:08 | 52.65741 | 5.84785 | 34967 ft | 494 kts | 43° |
| 2026-05-04 08:11 | 52.87525 | 6.19636 | 34958 ft | 494 kts | 42° |
| 2026-05-04 08:11 | 52.94907 | 6.31565 | 34954 ft | 496 kts | 42° |
| 2026-05-04 08:12 | 52.99788 | 6.39488 | 34952 ft | 494 kts | 42° |
| 2026-05-04 08:12 | 53.04686 | 6.47459 | 34947 ft | 494 kts | 42° |
| 2026-05-04 08:13 | 53.09514 | 6.55349 | 34959 ft | 494 kts | 42° |
| 2026-05-04 08:13 | 53.14302 | 6.63206 | 34968 ft | 493 kts | 42° |
| 2026-05-04 08:14 | 53.19314 | 6.70961 | 34947 ft | 492 kts | 39° |
| 2026-05-04 08:16 | 53.39397 | 7.00350 | 34957 ft | 491 kts | 39° |
| 2026-05-04 08:16 | 53.44484 | 7.07873 | 34973 ft | 491 kts | 39° |
| 2026-05-04 08:17 | 53.49604 | 7.15475 | 34967 ft | 491 kts | 39° |
| 2026-05-04 08:17 | 53.54677 | 7.23031 | 34951 ft | 492 kts | 39° |
| 2026-05-04 08:19 | 53.75019 | 7.53590 | 34953 ft | 493 kts | 40° |
| 2026-05-04 08:20 | 53.80136 | 7.61343 | 34970 ft | 493 kts | 40° |
| 2026-05-04 08:20 | 53.85224 | 7.69073 | 34974 ft | 494 kts | 40° |
| 2026-05-04 08:21 | 53.90308 | 7.76829 | 34963 ft | 493 kts | 40° |
| 2026-05-04 08:21 | 53.95387 | 7.84602 | 34972 ft | 493 kts | 41° |
| 2026-05-04 08:22 | 54.00467 | 7.92404 | 34951 ft | 494 kts | 40° |
| 2026-05-04 08:24 | 54.20757 | 8.23837 | 34972 ft | 495 kts | 40° |
| 2026-05-04 08:24 | 54.25786 | 8.31764 | 34975 ft | 495 kts | 44° |
| 2026-05-04 08:25 | 54.30138 | 8.40839 | 34983 ft | 496 kts | 52° |
| 2026-05-04 08:25 | 54.34312 | 8.50239 | 34963 ft | 496 kts | 51° |
| 2026-05-04 08:27 | 54.51094 | 8.87610 | 34954 ft | 496 kts | 52° |
| 2026-05-04 08:28 | 54.55290 | 8.97003 | 34950 ft | 496 kts | 52° |
| 2026-05-04 08:28 | 54.59442 | 9.06336 | 34950 ft | 495 kts | 51° |
| 2026-05-04 08:29 | 54.63625 | 9.15773 | 34956 ft | 495 kts | 51° |
| 2026-05-04 08:31 | 54.80242 | 9.53611 | 34936 ft | 496 kts | 52° |
| 2026-05-04 08:33 | 54.94602 | 9.86794 | 33855 ft | 488 kts | 52° |
| 2026-05-04 08:33 | 54.96636 | 9.91533 | 33417 ft | 488 kts | 52° |
| 2026-05-04 08:35 | 55.10820 | 10.24816 | 29223 ft | 471 kts | 51° |
| 2026-05-04 08:35 | 55.12752 | 10.29385 | 28698 ft | 466 kts | 51° |
| 2026-05-04 08:35 | 55.14698 | 10.33985 | 27787 ft | 471 kts | 51° |
| 2026-05-04 08:35 | 55.16603 | 10.38505 | 27084 ft | 470 kts | 51° |
| 2026-05-04 08:37 | 55.27502 | 10.65658 | 23648 ft | 447 kts | 64° |
| 2026-05-04 08:37 | 55.28685 | 10.70714 | 23045 ft | 443 kts | 72° |
| 2026-05-04 08:37 | 55.29599 | 10.75803 | 22471 ft | 439 kts | 72° |
| 2026-05-04 08:38 | 55.30787 | 10.80723 | 21887 ft | 436 kts | 63° |
| 2026-05-04 08:38 | 55.32145 | 10.85355 | 21369 ft | 431 kts | 62° |
| 2026-05-04 08:38 | 55.33550 | 10.90043 | 21046 ft | 430 kts | 62° |
| 2026-05-04 08:40 | 55.42670 | 11.22424 | 18311 ft | 415 kts | 63° |
| 2026-05-04 08:40 | 55.43930 | 11.27016 | 17854 ft | 412 kts | 63° |
| 2026-05-04 08:40 | 55.45155 | 11.31485 | 17415 ft | 408 kts | 63° |
| 2026-05-04 08:41 | 55.46372 | 11.35934 | 16971 ft | 405 kts | 63° |
| 2026-05-04 08:41 | 55.47600 | 11.40437 | 16511 ft | 402 kts | 63° |
| 2026-05-04 08:41 | 55.48797 | 11.44830 | 16072 ft | 399 kts | 63° |
| 2026-05-04 08:41 | 55.49980 | 11.49190 | 15638 ft | 396 kts | 63° |
| 2026-05-04 08:42 | 55.51156 | 11.53528 | 15193 ft | 394 kts | 63° |
| 2026-05-04 08:42 | 55.52342 | 11.57911 | 14749 ft | 391 kts | 63° |
| 2026-05-04 08:42 | 55.53495 | 11.62176 | 14307 ft | 389 kts | 63° |
| 2026-05-04 08:42 | 55.54651 | 11.66465 | 13881 ft | 386 kts | 64° |
| 2026-05-04 08:43 | 55.55801 | 11.70737 | 13436 ft | 382 kts | 64° |
| 2026-05-04 08:43 | 55.56920 | 11.74902 | 13016 ft | 379 kts | 64° |
| 2026-05-04 08:43 | 55.58047 | 11.79111 | 12572 ft | 376 kts | 63° |
| 2026-05-04 08:43 | 55.59149 | 11.83230 | 12157 ft | 372 kts | 63° |
| 2026-05-04 08:44 | 55.60249 | 11.87347 | 11724 ft | 369 kts | 63° |
| 2026-05-04 08:44 | 55.61326 | 11.91389 | 11266 ft | 366 kts | 63° |
| 2026-05-04 08:46 | 55.68262 | 12.17589 | 9606 ft | 304 kts | 62° |
| 2026-05-04 08:46 | 55.69157 | 12.20981 | 9258 ft | 303 kts | 62° |
| 2026-05-04 08:46 | 55.70044 | 12.24354 | 8917 ft | 301 kts | 62° |
| 2026-05-04 08:46 | 55.70916 | 12.27679 | 8592 ft | 299 kts | 62° |
| 2026-05-04 08:47 | 55.71788 | 12.31005 | 8148 ft | 301 kts | 62° |
| 2026-05-04 08:47 | 55.72665 | 12.34355 | 7765 ft | 300 kts | 62° |
| 2026-05-04 08:47 | 55.73543 | 12.37717 | 7417 ft | 297 kts | 62° |
| 2026-05-04 08:47 | 55.74401 | 12.41012 | 7077 ft | 294 kts | 62° |
| 2026-05-04 08:48 | 55.75250 | 12.44271 | 6735 ft | 292 kts | 62° |
| 2026-05-04 08:48 | 55.76090 | 12.47502 | 6423 ft | 290 kts | 61° |
| 2026-05-04 08:48 | 55.76939 | 12.50775 | 6089 ft | 288 kts | 61° |
| 2026-05-04 08:48 | 55.77760 | 12.53933 | 5725 ft | 286 kts | 61° |
| 2026-05-04 08:49 | 55.78592 | 12.57144 | 5370 ft | 284 kts | 61° |
| 2026-05-04 08:50 | 55.83358 | 12.75657 | 3657 ft | 261 kts | 62° |
| 2026-05-04 08:50 | 55.84033 | 12.78553 | 3499 ft | 254 kts | 73° |
| 2026-05-04 08:51 | 55.84047 | 12.81665 | 3330 ft | 250 kts | 106° |
| 2026-05-04 08:51 | 55.83234 | 12.84341 | 3182 ft | 247 kts | 130° |
| 2026-05-04 08:51 | 55.82113 | 12.86642 | 3035 ft | 246 kts | 136° |
| 2026-05-04 08:51 | 55.80735 | 12.88315 | 2972 ft | 239 kts | 167° |
| 2026-05-04 08:52 | 55.79126 | 12.88727 | 2979 ft | 234 kts | 182° |
| 2026-05-04 08:52 | 55.77505 | 12.88733 | 2972 ft | 232 kts | 192° |
| 2026-05-04 08:52 | 55.76043 | 12.87764 | 2977 ft | 223 kts | 218° |
| 2026-05-04 08:52 | 55.74860 | 12.86089 | 2979 ft | 212 kts | 228° |
| 2026-05-04 08:53 | 55.73837 | 12.84343 | 2912 ft | 200 kts | 229° |
| 2026-05-04 08:54 | 55.67188 | 12.73951 | 1209 ft | 146 kts | 226° |
| 2026-05-04 08:55 | 55.66442 | 12.72821 | 981 ft | 137 kts | 226° |
| 2026-05-04 08:55 | 55.65722 | 12.71721 | 844 ft | 137 kts | 226° |
| 2026-05-04 08:55 | 55.65014 | 12.70603 | 706 ft | 137 kts | 227° |
| 2026-05-04 08:55 | 55.64314 | 12.69495 | 523 ft | 137 kts | 226° |
| 2026-05-04 08:57 | 55.61213 | 12.64403 | 24 ft | 20 kts | 252° |
| 2026-05-04 09:01 | 55.62059 | 12.64876 | 21 ft | 11 kts | 306° |
| 2026-05-04 09:01 | 55.62110 | 12.64739 | 21 ft | 14 kts | 302° |
| 2026-05-04 09:01 | 55.62168 | 12.64580 | 21 ft | 16 kts | 304° |
| 2026-05-04 09:01 | 55.62232 | 12.64408 | 21 ft | 17 kts | 303° |
| 2026-05-04 09:02 | 55.62300 | 12.64224 | 22 ft | 17 kts | 303° |
| 2026-05-04 09:02 | 55.62369 | 12.64043 | 22 ft | 18 kts | 305° |
| 2026-05-04 09:02 | 55.62444 | 12.63862 | 22 ft | 18 kts | 315° |
| 2026-05-04 09:02 | 55.62552 | 12.63772 | 22 ft | 14 kts | 352° |
| 2026-05-04 09:03 | 55.62634 | 12.63794 | 22 ft | 11 kts | 22° |
| 2026-05-04 09:03 | 55.62694 | 12.63866 | 22 ft | 10 kts | 32° |
| 2026-05-04 09:03 | 55.62752 | 12.63932 | 21 ft | 9 kts | 34° |
| 2026-05-04 09:03 | 55.62797 | 12.63990 | 21 ft | 7 kts | 46° |
| 2026-05-04 09:04 | 55.62832 | 12.64053 | 21 ft | 6 kts | 19° |
| 2026-05-04 09:04 | 55.62863 | 12.64063 | 21 ft | 3 kts | 10° |
| 2026-05-04 09:04 | 55.62871 | 12.64066 | 21 ft | 0 kts | 11° |
| 2026-05-04 09:04 | 55.62874 | 12.64067 | 21 ft | 0 kts | 11° |